Terminal Aerodrome Forecast
Issued by NWS Paducah, KY

Home | Current Version | Previous Version | Text Only | Print | Product List | Glossary On
Versions: 1 2 3 4 5 6 7 8 9 10 11
000
FTUS43 KPAH 251727
TAFPAH
TAF
KPAH 251727Z 2518/2618 20014G24KT P6SM SCT020 BKN050
     FM252200 26014G22KT P6SM VCTS BKN040CB
     FM260500 32007KT P6SM OVC008=

USA.gov is the U.S. government's official web portal to all federal, state and local government web resources and services.